world map with TEA marked

TEA - Airport

This information may not be accurate or current and is not valid for navigation or flight planning. No warranty of fitness for any purpose is made or implied.

flag of Honduras

Donate via PayPal

Additional information is available on the NEW Great Circle Mapper

Location
City:  Tela, Atlántida, Honduras
ICAO / IATA:MHTE / TEA

Details
Type:Airport (Aerodrome, Airfield)
Latitude:15°46'33"N (15.775864)
Longitude:87°28'33"W (-87.475846)
Datum:WGS 1984
Elevation:7 ft (2 m)
Runways:1
Longest:4415 × 98 ft (1346 × 30 m)

Time
Timezone:UTC+28:08 (DST+30:08)
Local Time:

Weather
METAR:MHTE  161800Z 36004KT 9999 SCT024TCU 27/24 Q1017 TCU S SW HZ

Related Locations
Nearby:
Farthest:CCK: 12061 mi / 19410 km
West Island (Pulau Panjang) [Cocos (Keeling) Islands], CC

Find:

   beyond  
but within

Other Information
Maps:
Sources:

  


 


Great Circle Mapper   Great Circle Mapper
Great Circle Mapper FAQ   Great Circle Mapper FAQ
  Karl's Home Page
KLS˛   KLS˛ Home
   GC on Facebook
Airlines of the World   Airlines of the World
Donate via PayPal


Copyright © 2004-2019, Karl L. Swartz. All rights reserved.
All trademarks mentioned herein belong to their respective owners.

Please see credits for attribution and copyright information.

Karl Swartz <karl@kls2.com>
  Powered by FreeBSD
Valid HTML 4.01!
Labeled with ICRA
hCard Microformat
Geo Microformat